Time;durP1;ratioP1;P1;durP2;ratioP2;P2;SDS_P1;SDS_P2;PMS_P1;PMS_P2;Temp;Humidity;BMP_temperature;BMP_pressure;BME280_temperature;BME280_humidity;BME280_pressure;Samples;Min_cycle;Max_cycle;Signal;HPM_P1;HPM_P2
2023/07/31 00:00:11;;;;;;;2.85;1.20;;;17.40;99.90;;;;;;6211498;23;19992;-79
2023/07/31 00:02:36;;;;;;;1.63;1.15;;;17.40;99.90;;;;;;6211629;23;20009;-79
2023/07/31 00:05:02;;;;;;;2.60;0.98;;;17.40;99.90;;;;;;6211732;23;20000;-79
2023/07/31 00:07:28;;;;;;;1.08;0.70;;;17.40;99.90;;;;;;6211806;23;20418;-79
2023/07/31 00:09:54;;;;;;;1.80;1.10;;;17.40;99.90;;;;;;6211437;23;19993;-79
2023/07/31 00:12:20;;;;;;;1.20;0.85;;;17.40;99.90;;;;;;6184487;23;20009;-79
2023/07/31 00:14:46;;;;;;;1.40;1.00;;;17.40;99.90;;;;;;6211936;23;20008;-79
2023/07/31 00:17:12;;;;;;;1.17;0.93;;;17.40;99.90;;;;;;6184868;23;20001;-78
2023/07/31 00:19:37;;;;;;;1.60;1.00;;;17.40;99.90;;;;;;6211787;23;20446;-79
2023/07/31 00:22:03;;;;;;;1.50;1.00;;;17.30;99.90;;;;;;6211316;23;20071;-78
2023/07/31 00:24:28;;;;;;;1.60;1.02;;;17.30;99.90;;;;;;6184615;23;20005;-78
2023/07/31 00:26:54;;;;;;;1.15;0.80;;;17.40;99.90;;;;;;6185387;23;20008;-79
2023/07/31 00:29:20;;;;;;;1.95;1.08;;;17.40;99.90;;;;;;6211428;23;20008;-79
2023/07/31 00:31:45;;;;;;;1.48;0.90;;;17.40;99.90;;;;;;6212579;23;20338;-78
2023/07/31 00:34:11;;;;;;;1.15;0.73;;;17.40;99.90;;;;;;6213543;23;20050;-79
2023/07/31 00:36:36;;;;;;;1.35;1.10;;;17.40;99.90;;;;;;6213170;23;20005;-78
2023/07/31 00:39:02;;;;;;;3.25;2.13;;;17.50;99.90;;;;;;6186367;23;20001;-78
2023/07/31 00:41:27;;;;;;;5.95;2.70;;;17.40;99.90;;;;;;6213264;23;19997;-79
2023/07/31 00:43:53;;;;;;;3.70;3.00;;;17.50;99.90;;;;;;6213533;23;20495;-78
2023/07/31 00:46:20;;;;;;;7.85;4.18;;;17.50;99.90;;;;;;6212810;23;20005;-79
2023/07/31 00:48:45;;;;;;;9.63;4.07;;;17.50;99.90;;;;;;6213507;23;20494;-79
2023/07/31 00:51:11;;;;;;;10.60;6.53;;;17.50;99.90;;;;;;6213137;23;20004;-78
2023/07/31 00:53:37;;;;;;;12.23;7.15;;;17.60;99.90;;;;;;6212328;23;20035;-78
2023/07/31 00:56:03;;;;;;;14.60;7.05;;;17.60;99.90;;;;;;6212996;23;20005;-79
2023/07/31 00:58:29;;;;;;;13.23;6.53;;;17.60;99.90;;;;;;6213153;23;20004;-79
2023/07/31 01:00:55;;;;;;;19.02;10.50;;;17.70;99.90;;;;;;6213047;23;20039;-79
2023/07/31 01:03:20;;;;;;;18.65;10.13;;;17.70;99.90;;;;;;6212760;23;20023;-78
2023/07/31 01:06:07;;;;;;;21.35;10.38;;;17.70;99.90;;;;;;6212958;23;19996;-79
2023/07/31 01:08:47;;;;;;;21.98;11.65;;;17.80;99.90;;;;;;6212633;23;20005;-79
2023/07/31 01:11:25;;;;;;;23.27;10.48;;;17.80;99.90;;;;;;6212374;23;19996;-78
2023/07/31 01:13:51;;;;;;;25.02;10.90;;;17.90;99.90;;;;;;6212921;23;20008;-79
2023/07/31 01:16:16;;;;;;;17.55;10.50;;;17.90;99.90;;;;;;6212247;23;20024;-79
2023/07/31 01:18:42;;;;;;;20.10;9.80;;;17.90;99.90;;;;;;6212866;23;20009;-78
2023/07/31 01:21:36;;;;;;;19.63;11.00;;;18.00;99.90;;;;;;6211934;23;20076;-78
2023/07/31 01:24:29;;;;;;;20.95;11.00;;;18.00;99.90;;;;;;6212633;23;20429;-78
2023/07/31 01:27:10;;;;;;;22.15;9.90;;;18.00;99.90;;;;;;6213191;23;20027;-79
2023/07/31 01:29:43;;;;;;;24.60;10.93;;;18.00;99.90;;;;;;6212924;23;20003;-78
2023/07/31 01:32:10;;;;;;;25.75;9.77;;;18.00;99.90;;;;;;6212424;23;20008;-78
2023/07/31 01:34:37;;;;;;;21.90;9.43;;;18.10;99.90;;;;;;6212630;23;20000;-78
2023/07/31 01:37:03;;;;;;;19.17;9.40;;;18.00;99.90;;;;;;6212197;23;20001;-78
2023/07/31 01:39:28;;;;;;;20.42;9.60;;;18.00;99.90;;;;;;6212823;23;20007;-78
2023/07/31 01:41:54;;;;;;;20.67;10.27;;;18.10;99.90;;;;;;6212962;23;20377;-78
2023/07/31 01:44:20;;;;;;;19.10;8.88;;;18.10;99.90;;;;;;6211846;23;20001;-78
2023/07/31 01:46:45;;;;;;;20.88;9.65;;;18.10;99.90;;;;;;6213035;23;20031;-78
2023/07/31 01:49:11;;;;;;;23.02;9.70;;;18.10;99.90;;;;;;6212609;23;19996;-79
2023/07/31 01:51:37;;;;;;;15.77;9.00;;;18.10;99.90;;;;;;6212264;23;20015;-79
2023/07/31 01:54:03;;;;;;;21.17;10.23;;;18.00;99.90;;;;;;6212121;23;20070;-79
2023/07/31 01:56:28;;;;;;;23.02;8.93;;;18.10;99.90;;;;;;6212702;23;19996;-78
2023/07/31 01:58:54;;;;;;;25.63;9.95;;;18.10;99.90;;;;;;6212751;23;20001;-78
2023/07/31 02:01:19;;;;;;;22.98;10.23;;;18.10;99.90;;;;;;6212153;23;20000;-78
2023/07/31 02:03:45;;;;;;;22.38;9.98;;;18.10;99.90;;;;;;6212716;23;20012;-79
2023/07/31 02:06:11;;;;;;;18.65;8.35;;;18.10;99.90;;;;;;6211898;23;20011;-79
2023/07/31 02:08:36;;;;;;;22.25;8.77;;;18.10;99.90;;;;;;6212509;23;20011;-79
2023/07/31 02:11:02;;;;;;;20.20;9.48;;;18.10;99.90;;;;;;6185793;23;20139;-80
2023/07/31 02:13:27;;;;;;;16.45;7.68;;;18.10;99.90;;;;;;6185682;23;20009;-79
2023/07/31 02:15:53;;;;;;;15.52;7.93;;;18.10;99.90;;;;;;6211147;23;20000;-78
2023/07/31 02:18:19;;;;;;;17.33;8.23;;;18.10;99.90;;;;;;6211387;23;20025;-78
2023/07/31 02:20:49;;;;;;;23.23;9.40;;;18.00;99.90;;;;;;6212701;23;20000;-78
2023/07/31 02:23:15;;;;;;;18.88;8.63;;;18.00;99.90;;;;;;6212018;23;20140;-79
2023/07/31 02:25:40;;;;;;;22.35;9.50;;;18.00;99.90;;;;;;6212462;23;20349;-78
2023/07/31 02:28:06;;;;;;;20.05;8.80;;;18.00;99.90;;;;;;6211938;23;20028;-78
2023/07/31 02:30:31;;;;;;;18.52;8.48;;;18.00;99.90;;;;;;6212338;23;20083;-78
2023/07/31 02:32:57;;;;;;;19.27;7.78;;;18.00;99.90;;;;;;6211229;23;20004;-78
2023/07/31 02:35:22;;;;;;;19.65;8.85;;;18.00;99.90;;;;;;6212048;23;20024;-78
2023/07/31 02:37:48;;;;;;;18.52;8.68;;;18.00;99.90;;;;;;6212361;23;19993;-79
2023/07/31 02:40:14;;;;;;;16.42;8.75;;;18.00;99.90;;;;;;6212025;23;20001;-78
2023/07/31 02:42:39;;;;;;;15.85;6.65;;;18.00;99.90;;;;;;6212342;23;20037;-78
2023/07/31 02:45:05;;;;;;;17.73;8.80;;;18.00;99.90;;;;;;6212258;23;20014;-78
2023/07/31 02:47:31;;;;;;;20.25;8.38;;;18.00;99.90;;;;;;6210875;23;20001;-79
2023/07/31 02:49:57;;;;;;;14.13;7.03;;;18.00;99.90;;;;;;6211576;23;20001;-78
2023/07/31 02:52:23;;;;;;;16.63;7.55;;;18.00;99.90;;;;;;6211715;23;20011;-79
2023/07/31 02:54:48;;;;;;;15.43;7.80;;;18.00;99.90;;;;;;6211648;23;20071;-78
2023/07/31 02:57:14;;;;;;;19.70;7.90;;;18.00;99.90;;;;;;6209858;23;20071;-78
2023/07/31 02:59:40;;;;;;;15.85;7.80;;;18.00;99.90;;;;;;6211655;23;20075;-78
2023/07/31 03:02:05;;;;;;;16.27;8.18;;;18.00;99.90;;;;;;6184893;23;20468;-78
2023/07/31 03:04:31;;;;;;;16.52;8.18;;;18.00;99.90;;;;;;6211962;23;20001;-79
2023/07/31 03:06:56;;;;;;;18.15;7.78;;;18.00;99.90;;;;;;6212200;23;20006;-78
2023/07/31 03:09:22;;;;;;;15.90;7.22;;;18.00;99.90;;;;;;6211742;23;19997;-79
2023/07/31 03:11:47;;;;;;;19.90;9.15;;;18.00;99.90;;;;;;6212260;23;20422;-78
2023/07/31 03:14:13;;;;;;;14.23;8.00;;;18.00;99.90;;;;;;6211761;23;20011;-78
2023/07/31 03:16:38;;;;;;;22.98;9.05;;;18.00;99.90;;;;;;6211688;23;20007;-78
2023/07/31 03:19:04;;;;;;;24.13;8.75;;;17.90;99.90;;;;;;6211605;23;19997;-78
2023/07/31 03:21:30;;;;;;;17.85;7.70;;;17.90;99.90;;;;;;6212162;23;20011;-78
2023/07/31 03:23:55;;;;;;;16.10;7.20;;;18.00;99.90;;;;;;6211829;23;20430;-78
2023/07/31 03:26:21;;;;;;;19.23;8.20;;;17.90;99.90;;;;;;6211177;23;20493;-78
2023/07/31 03:28:46;;;;;;;17.15;7.75;;;17.90;99.90;;;;;;6211616;23;20434;-78
2023/07/31 03:31:12;;;;;;;18.38;8.38;;;18.00;99.90;;;;;;6210704;23;20303;-79
2023/07/31 03:33:38;;;;;;;24.38;9.43;;;17.90;99.90;;;;;;6211881;23;20441;-79
2023/07/31 03:36:04;;;;;;;18.10;8.75;;;17.90;99.90;;;;;;6211720;23;20460;-79
2023/07/31 03:38:29;;;;;;;14.88;7.18;;;17.90;99.90;;;;;;6212054;23;20011;-79
2023/07/31 03:40:55;;;;;;;18.52;8.38;;;17.90;99.90;;;;;;6212423;23;20024;-79
2023/07/31 03:43:20;;;;;;;22.13;8.40;;;17.90;99.90;;;;;;6184954;23;20005;-79
2023/07/31 03:45:46;;;;;;;19.63;8.55;;;17.90;99.90;;;;;;6211467;23;20011;-79
2023/07/31 03:48:11;;;;;;;17.77;7.80;;;17.90;99.90;;;;;;6211423;23;20005;-79
2023/07/31 03:50:37;;;;;;;16.38;8.02;;;17.90;99.90;;;;;;6211919;23;20005;-78
2023/07/31 03:53:03;;;;;;;18.98;7.95;;;17.90;99.90;;;;;;6211227;23;20017;-78
2023/07/31 03:55:28;;;;;;;11.85;7.13;;;17.90;99.90;;;;;;6211793;23;20008;-80
2023/07/31 03:57:54;;;;;;;20.98;8.35;;;17.90;99.90;;;;;;6211904;23;20076;-79
2023/07/31 04:00:20;;;;;;;17.08;7.93;;;17.90;99.90;;;;;;6210775;23;20075;-80
2023/07/31 04:02:46;;;;;;;12.70;6.93;;;17.90;99.90;;;;;;6211970;23;20787;-79
2023/07/31 04:05:11;;;;;;;13.43;6.65;;;17.80;99.90;;;;;;6211712;23;20039;-79
2023/07/31 04:07:37;;;;;;;16.63;8.02;;;17.80;99.90;;;;;;6213299;23;20030;-79
2023/07/31 04:10:03;;;;;;;17.95;8.23;;;17.80;99.90;;;;;;6213486;23;20012;-79
2023/07/31 04:12:29;;;;;;;19.20;8.32;;;17.80;99.90;;;;;;6213413;23;20080;-79
2023/07/31 04:14:54;;;;;;;21.20;8.18;;;17.80;99.90;;;;;;6213311;23;20062;-79
2023/07/31 04:17:20;;;;;;;14.27;7.40;;;17.80;99.90;;;;;;6212659;23;20323;-79
2023/07/31 04:19:45;;;;;;;18.20;7.53;;;17.80;99.90;;;;;;6213088;23;20001;-79
2023/07/31 04:22:11;;;;;;;15.48;7.93;;;17.80;99.90;;;;;;6212333;23;20331;-79
2023/07/31 04:24:36;;;;;;;11.93;6.90;;;17.80;99.90;;;;;;6212562;23;20434;-80
2023/07/31 04:27:02;;;;;;;12.88;6.50;;;17.80;99.90;;;;;;6212935;23;20069;-79
2023/07/31 04:29:28;;;;;;;16.70;7.25;;;17.80;99.90;;;;;;6212976;23;20000;-79
2023/07/31 04:31:53;;;;;;;20.08;7.97;;;17.80;99.90;;;;;;6213491;23;20072;-79
2023/07/31 04:34:19;;;;;;;14.32;6.60;;;17.80;99.90;;;;;;6212861;23;20035;-79
2023/07/31 04:36:44;;;;;;;16.60;7.60;;;17.80;99.90;;;;;;6213747;23;20441;-80
2023/07/31 04:39:10;;;;;;;21.48;8.55;;;17.80;99.90;;;;;;6213356;23;20008;-80
2023/07/31 04:41:36;;;;;;;15.65;7.53;;;17.80;99.90;;;;;;6213346;23;20004;-80
2023/07/31 04:44:01;;;;;;;12.40;6.70;;;17.90;99.90;;;;;;6212999;23;20067;-79
2023/07/31 04:46:27;;;;;;;12.63;6.72;;;17.90;99.90;;;;;;6213285;23;20004;-79
2023/07/31 04:48:53;;;;;;;15.73;6.90;;;17.90;99.90;;;;;;6213601;23;20009;-79
2023/07/31 04:51:18;;;;;;;14.70;7.55;;;17.90;99.90;;;;;;6186452;23;19997;-79
2023/07/31 04:53:44;;;;;;;15.32;6.95;;;17.90;99.90;;;;;;6197945;23;20048;-79
2023/07/31 04:56:09;;;;;;;11.57;7.38;;;17.90;99.90;;;;;;6211456;23;20031;-79
2023/07/31 04:58:35;;;;;;;12.77;6.60;;;17.90;99.90;;;;;;6212681;23;20070;-80
2023/07/31 05:01:00;;;;;;;18.42;7.45;;;17.90;99.90;;;;;;6213026;23;20000;-81
2023/07/31 05:03:26;;;;;;;14.65;7.22;;;17.90;99.90;;;;;;6211432;23;20076;-79
2023/07/31 05:05:52;;;;;;;13.85;7.53;;;17.90;99.90;;;;;;6213364;23;20004;-80
2023/07/31 05:08:17;;;;;;;17.67;7.40;;;17.90;99.90;;;;;;6212616;23;19997;-79
2023/07/31 05:10:43;;;;;;;15.27;7.03;;;17.90;99.90;;;;;;6211779;23;20303;-79
2023/07/31 05:13:09;;;;;;;15.95;8.60;;;18.00;99.90;;;;;;6212642;23;20004;-80
2023/07/31 05:15:34;;;;;;;16.17;7.30;;;18.00;99.90;;;;;;6211399;23;20047;-80
2023/07/31 05:18:00;;;;;;;13.65;7.28;;;18.00;99.90;;;;;;6212811;23;20001;-79
2023/07/31 05:20:25;;;;;;;16.13;6.65;;;18.00;99.90;;;;;;6212333;23;20449;-80
2023/07/31 05:22:52;;;;;;;14.13;6.45;;;18.00;99.90;;;;;;6213210;23;20009;-80
2023/07/31 05:25:17;;;;;;;12.55;6.88;;;18.00;99.90;;;;;;6212380;23;20373;-80
2023/07/31 05:27:43;;;;;;;14.18;6.72;;;18.00;99.90;;;;;;6212594;23;20054;-79
2023/07/31 05:30:08;;;;;;;15.23;7.13;;;18.00;99.90;;;;;;6212709;23;20484;-80
2023/07/31 05:32:34;;;;;;;10.02;5.78;;;18.00;99.90;;;;;;6212909;23;20405;-80
2023/07/31 05:35:00;;;;;;;13.48;5.82;;;17.90;99.90;;;;;;6213087;23;20000;-80
2023/07/31 05:37:25;;;;;;;15.77;6.78;;;17.90;99.90;;;;;;6212514;23;20430;-80
2023/07/31 05:39:52;;;;;;;12.45;6.57;;;17.90;99.90;;;;;;6212928;23;20001;-80
2023/07/31 05:42:17;;;;;;;15.15;7.13;;;17.90;99.90;;;;;;6211937;23;20011;-80
2023/07/31 05:44:43;;;;;;;11.43;6.30;;;17.90;99.90;;;;;;6213644;23;20331;-80
2023/07/31 05:47:09;;;;;;;15.77;7.28;;;17.90;99.90;;;;;;6212626;23;20453;-80
2023/07/31 05:49:35;;;;;;;12.30;5.70;;;17.90;99.90;;;;;;6212575;23;20008;-80
2023/07/31 05:52:00;;;;;;;19.25;6.82;;;17.90;99.90;;;;;;6212908;23;20072;-80
2023/07/31 05:54:26;;;;;;;13.25;6.78;;;17.80;99.90;;;;;;6212219;23;20036;-80
2023/07/31 05:56:51;;;;;;;14.73;6.80;;;17.80;99.90;;;;;;6212530;23;20378;-80
2023/07/31 05:59:17;;;;;;;12.10;6.40;;;17.80;99.90;;;;;;6212253;23;20545;-79
2023/07/31 06:01:43;;;;;;;10.65;5.75;;;17.80;99.90;;;;;;6186225;23;20436;-79
2023/07/31 06:04:08;;;;;;;14.65;6.13;;;17.80;99.90;;;;;;6212289;23;20005;-81
2023/07/31 06:06:34;;;;;;;12.90;5.95;;;17.80;99.90;;;;;;6212635;23;20013;-82
2023/07/31 06:09:00;;;;;;;10.75;6.10;;;17.80;99.90;;;;;;6212641;23;20024;-81
2023/07/31 06:11:26;;;;;;;15.23;6.90;;;17.90;99.90;;;;;;6211849;23;20013;-81
2023/07/31 06:13:51;;;;;;;8.85;5.40;;;17.90;99.90;;;;;;6212562;23;20036;-83
2023/07/31 06:16:17;;;;;;;8.52;5.00;;;17.90;99.90;;;;;;6212015;23;20008;-82
2023/07/31 06:18:43;;;;;;;12.55;5.95;;;18.00;99.90;;;;;;6210925;23;20011;-82
2023/07/31 06:21:09;;;;;;;10.02;5.10;;;18.10;99.90;;;;;;6212224;23;20001;-82
2023/07/31 06:23:35;;;;;;;11.73;5.63;;;18.00;99.90;;;;;;6212389;23;20004;-82
2023/07/31 06:26:01;;;;;;;9.63;5.68;;;18.00;99.90;;;;;;6212022;23;20485;-82
2023/07/31 06:28:30;;;;;;;11.80;6.93;;;18.00;99.90;;;;;;6212465;23;20008;-82
2023/07/31 06:30:56;;;;;;;13.13;6.05;;;18.00;99.90;;;;;;6212288;23;20004;-82
2023/07/31 06:33:22;;;;;;;8.95;4.90;;;18.00;99.90;;;;;;6211936;23;20009;-83
2023/07/31 06:35:48;;;;;;;11.68;4.93;;;18.10;99.90;;;;;;6212482;23;20001;-82
2023/07/31 06:38:13;;;;;;;10.15;5.03;;;18.10;99.90;;;;;;6211918;23;20007;-81
2023/07/31 06:40:39;;;;;;;8.93;4.88;;;18.10;99.90;;;;;;6211752;23;20000;-81
2023/07/31 06:43:07;;;;;;;8.75;4.53;;;18.20;99.90;;;;;;6211954;23;20005;-81
2023/07/31 06:45:36;;;;;;;9.88;4.28;;;18.20;99.90;;;;;;6211771;23;20334;-80
2023/07/31 06:48:03;;;;;;;9.90;4.90;;;18.30;99.90;;;;;;6211391;23;20012;-80
2023/07/31 06:50:29;;;;;;;9.70;4.60;;;18.30;99.90;;;;;;6211994;23;20009;-80
2023/07/31 06:52:55;;;;;;;8.52;4.38;;;18.30;99.90;;;;;;6212374;23;20066;-80
2023/07/31 06:55:21;;;;;;;8.60;4.07;;;18.30;99.90;;;;;;6211569;23;20009;-80
2023/07/31 06:57:49;;;;;;;8.55;3.90;;;18.30;99.90;;;;;;6212147;23;20005;-81
2023/07/31 07:00:15;;;;;;;5.15;3.88;;;18.30;99.90;;;;;;6184833;23;20011;-80
2023/07/31 07:02:41;;;;;;;5.60;2.60;;;18.30;99.90;;;;;;6210486;23;20034;-80
2023/07/31 07:05:07;;;;;;;5.38;2.95;;;18.30;99.90;;;;;;6210746;23;20000;-80
2023/07/31 07:07:33;;;;;;;5.20;2.80;;;18.30;99.90;;;;;;6211265;23;20011;-80
2023/07/31 07:10:03;;;;;;;4.57;3.25;;;18.30;99.90;;;;;;6208955;23;20358;-80
2023/07/31 07:12:32;;;;;;;4.75;2.30;;;18.30;99.90;;;;;;6182610;23;20334;-81
2023/07/31 07:14:59;;;;;;;4.43;2.13;;;18.30;99.90;;;;;;6212008;23;20419;-80
2023/07/31 07:17:25;;;;;;;5.95;1.95;;;18.30;99.90;;;;;;6209543;23;20036;-80
2023/07/31 07:19:51;;;;;;;3.15;1.65;;;18.40;99.90;;;;;;6211628;23;19996;-82
2023/07/31 07:22:17;;;;;;;4.88;2.25;;;18.40;99.90;;;;;;6210783;23;20015;-80
2023/07/31 07:24:42;;;;;;;3.13;1.60;;;18.50;99.90;;;;;;6210849;23;20091;-80
2023/07/31 07:27:08;;;;;;;2.00;1.50;;;18.50;99.90;;;;;;6211595;23;20083;-80
2023/07/31 07:29:35;;;;;;;4.35;1.70;;;18.50;99.90;;;;;;6210396;23;20054;-80
2023/07/31 07:32:01;;;;;;;3.13;1.33;;;18.60;99.90;;;;;;6211757;23;20071;-80
2023/07/31 07:34:27;;;;;;;3.00;1.38;;;18.60;99.90;;;;;;6211739;23;20055;-80
2023/07/31 07:36:53;;;;;;;1.85;1.20;;;18.50;99.90;;;;;;6212023;23;20047;-81
2023/07/31 07:39:20;;;;;;;2.92;1.45;;;18.60;99.90;;;;;;6209678;23;20008;-80
2023/07/31 07:41:46;;;;;;;3.60;1.15;;;18.50;99.90;;;;;;6212697;23;20050;-81
2023/07/31 07:44:12;;;;;;;2.97;0.80;;;18.50;99.90;;;;;;6213712;23;20011;-80
2023/07/31 07:46:38;;;;;;;1.65;0.93;;;18.60;99.90;;;;;;6213179;23;20005;-81
2023/07/31 07:49:04;;;;;;;1.48;0.77;;;18.50;99.90;;;;;;6212499;23;20016;-80
2023/07/31 07:51:31;;;;;;;2.67;1.10;;;18.50;99.90;;;;;;6211889;23;20005;-81
2023/07/31 07:54:00;;;;;;;1.35;1.15;;;18.50;99.90;;;;;;6213185;23;20021;-80
2023/07/31 07:56:27;;;;;;;1.80;0.98;;;18.50;99.90;;;;;;6213503;23;20004;-80
2023/07/31 07:58:53;;;;;;;1.27;0.88;;;18.60;99.90;;;;;;6213835;23;20331;-81
2023/07/31 08:01:18;;;;;;;2.10;1.10;;;18.60;99.90;;;;;;6212378;23;20005;-80
2023/07/31 08:03:44;;;;;;;1.63;0.95;;;18.60;99.90;;;;;;6213011;23;20008;-80
2023/07/31 08:06:10;;;;;;;0.98;0.80;;;18.60;99.90;;;;;;6213487;23;20080;-80
2023/07/31 08:08:36;;;;;;;1.13;0.98;;;18.70;99.90;;;;;;6212861;23;20438;-81
2023/07/31 08:11:02;;;;;;;2.20;1.17;;;18.70;99.90;;;;;;6213553;23;20001;-81
2023/07/31 08:13:28;;;;;;;1.58;1.10;;;18.70;99.90;;;;;;6211556;23;20087;-80
2023/07/31 08:15:53;;;;;;;2.08;1.30;;;18.70;99.90;;;;;;6186912;23;20001;-79
2023/07/31 08:18:21;;;;;;;1.60;1.27;;;18.70;99.90;;;;;;6211689;23;20442;-80
2023/07/31 08:20:47;;;;;;;1.77;1.60;;;18.70;99.90;;;;;;6211382;23;20074;-80
2023/07/31 08:23:12;;;;;;;2.58;2.10;;;18.80;99.90;;;;;;6211386;23;20023;-81
2023/07/31 08:25:38;;;;;;;3.25;1.55;;;18.80;99.90;;;;;;6211372;23;20008;-82
2023/07/31 08:28:05;;;;;;;2.72;2.10;;;18.80;99.90;;;;;;6213177;23;20304;-80
2023/07/31 08:30:31;;;;;;;2.47;2.05;;;18.80;99.90;;;;;;6187104;23;20011;-81
2023/07/31 08:32:56;;;;;;;2.25;1.95;;;18.90;99.90;;;;;;6213264;23;20087;-82
2023/07/31 08:35:24;;;;;;;2.97;2.67;;;18.90;99.90;;;;;;6210989;23;20000;-83
2023/07/31 08:37:49;;;;;;;3.47;2.25;;;19.00;99.90;;;;;;6186767;23;19997;-81
2023/07/31 08:40:15;;;;;;;2.80;2.60;;;19.00;99.90;;;;;;6185925;23;20572;-82
2023/07/31 08:42:45;;;;;;;3.33;2.70;;;19.00;99.90;;;;;;6186484;23;20004;-81
2023/07/31 08:45:15;;;;;;;4.07;3.08;;;19.10;99.90;;;;;;6211556;23;20011;-82
2023/07/31 08:47:45;;;;;;;3.60;2.40;;;19.10;99.90;;;;;;6212911;23;19997;-82
2023/07/31 08:50:13;;;;;;;2.40;2.20;;;19.20;99.90;;;;;;6185471;23;20008;-81
2023/07/31 08:52:39;;;;;;;2.95;2.65;;;19.20;99.90;;;;;;6185393;23;20029;-81
2023/07/31 08:55:06;;;;;;;2.83;2.40;;;19.20;99.90;;;;;;6212847;23;20063;-82
2023/07/31 08:57:34;;;;;;;4.88;3.15;;;19.20;99.90;;;;;;6184783;23;20027;-82
2023/07/31 09:00:00;;;;;;;3.80;3.15;;;19.20;99.90;;;;;;6185851;23;20004;-82
2023/07/31 09:02:34;;;;;;;3.22;2.92;;;19.20;99.90;;;;;;6185424;23;20032;-82
2023/07/31 09:05:01;;;;;;;3.42;2.78;;;19.30;99.90;;;;;;6211927;23;20005;-82
2023/07/31 09:07:27;;;;;;;3.03;2.75;;;19.30;99.90;;;;;;6211209;23;20501;-82
2023/07/31 09:09:52;;;;;;;3.28;2.97;;;19.30;99.90;;;;;;6185426;23;20011;-82
2023/07/31 09:12:18;;;;;;;3.63;2.97;;;19.30;99.90;;;;;;6211381;23;20009;-81
2023/07/31 09:14:47;;;;;;;3.30;3.00;;;19.40;99.90;;;;;;6186011;23;20032;-82
2023/07/31 09:17:12;;;;;;;5.25;3.20;;;19.40;99.90;;;;;;6211503;23;20001;-82
2023/07/31 09:19:38;;;;;;;4.75;3.60;;;19.40;99.90;;;;;;6184161;23;20303;-81
2023/07/31 09:22:05;;;;;;;3.45;3.15;;;19.40;99.90;;;;;;6211935;23;19997;-81
2023/07/31 09:24:32;;;;;;;4.55;4.07;;;19.40;99.90;;;;;;6212573;23;20370;-81
2023/07/31 09:26:59;;;;;;;4.05;3.75;;;19.40;99.90;;;;;;6185755;23;20497;-82
2023/07/31 09:29:26;;;;;;;4.13;3.72;;;19.40;99.90;;;;;;6184365;23;20001;-80
2023/07/31 09:31:52;;;;;;;4.63;4.22;;;19.40;99.90;;;;;;6186146;23;20358;-82
2023/07/31 09:34:18;;;;;;;5.78;4.28;;;19.40;99.90;;;;;;6211077;23;20016;-81
2023/07/31 09:36:46;;;;;;;5.22;4.70;;;19.40;99.90;;;;;;6212597;23;20015;-81
2023/07/31 09:39:12;;;;;;;5.20;4.65;;;19.40;99.90;;;;;;6211611;23;20357;-81
2023/07/31 09:41:43;;;;;;;9.00;5.95;;;19.40;99.90;;;;;;6210614;23;20001;-81
2023/07/31 09:44:09;;;;;;;5.47;4.97;;;19.40;99.90;;;;;;6184723;23;20005;-81
2023/07/31 09:46:37;;;;;;;5.57;5.07;;;19.50;99.90;;;;;;6212417;23;20011;-81
2023/07/31 09:49:13;;;;;;;6.53;5.90;;;19.50;99.90;;;;;;6211484;23;20000;-81
2023/07/31 09:51:41;;;;;;;8.02;7.20;;;19.50;99.90;;;;;;6184103;23;20268;-80
2023/07/31 09:54:13;;;;;;;7.40;6.40;;;19.50;99.90;;;;;;6210815;23;20013;-80
2023/07/31 09:56:49;;;;;;;7.65;7.05;;;19.60;99.90;;;;;;6210393;23;20000;-80
2023/07/31 09:59:16;;;;;;;6.18;5.40;;;19.70;99.90;;;;;;6184004;23;20011;-80
2023/07/31 10:01:43;;;;;;;7.65;6.47;;;19.80;99.90;;;;;;6210766;23;20011;-80
2023/07/31 10:04:10;;;;;;;8.07;6.28;;;20.00;99.90;;;;;;6181383;23;20031;-80
2023/07/31 10:06:37;;;;;;;6.72;6.03;;;20.10;99.90;;;;;;6210431;23;20059;-80
2023/07/31 10:09:08;;;;;;;5.75;5.15;;;20.20;99.90;;;;;;6210659;23;20027;-81
2023/07/31 10:11:51;;;;;;;6.45;5.78;;;20.30;99.90;;;;;;6183918;23;20005;-80
2023/07/31 10:14:19;;;;;;;8.52;6.10;;;20.30;99.90;;;;;;6208712;23;20389;-79
2023/07/31 10:16:45;;;;;;;8.60;6.97;;;20.20;99.90;;;;;;6184476;23;20008;-80
2023/07/31 10:19:11;;;;;;;7.82;7.03;;;20.30;99.90;;;;;;6209870;23;20000;-81
2023/07/31 10:21:37;;;;;;;6.07;5.47;;;20.30;99.90;;;;;;6210901;23;20001;-80
2023/07/31 10:24:04;;;;;;;11.13;7.53;;;20.30;99.90;;;;;;6209775;23;20005;-80
2023/07/31 10:26:33;;;;;;;7.47;6.72;;;20.40;99.90;;;;;;6210023;23;20008;-80
2023/07/31 10:28:59;;;;;;;8.13;6.50;;;20.40;99.90;;;;;;6184076;23;20008;-80
2023/07/31 10:31:25;;;;;;;7.65;6.85;;;20.50;99.90;;;;;;6209849;23;20004;-79
2023/07/31 10:33:53;;;;;;;8.93;8.05;;;20.50;99.90;;;;;;6184190;23;20009;-80
2023/07/31 10:36:20;;;;;;;11.68;8.43;;;20.50;99.90;;;;;;6208694;23;20051;-79
2023/07/31 10:38:51;;;;;;;8.98;8.05;;;20.50;99.90;;;;;;6184608;23;20028;-79
2023/07/31 10:41:17;;;;;;;8.85;7.85;;;20.50;99.90;;;;;;6209378;23;20004;-80
2023/07/31 10:43:45;;;;;;;8.98;6.45;;;20.50;99.90;;;;;;6210911;23;20023;-80
2023/07/31 10:46:13;;;;;;;9.35;7.50;;;20.50;99.90;;;;;;6208975;23;20005;-79
2023/07/31 10:48:41;;;;;;;8.15;7.13;;;20.50;99.90;;;;;;6209789;23;19997;-81
2023/07/31 10:51:12;;;;;;;7.75;6.95;;;20.50;99.90;;;;;;6209751;23;20078;-81
2023/07/31 10:53:39;;;;;;;9.18;6.40;;;20.60;99.90;;;;;;6149584;23;1047783;-81
2023/07/31 10:56:09;;;;;;;7.72;6.93;;;20.60;99.90;;;;;;6211647;23;20334;-80
2023/07/31 10:58:36;;;;;;;7.45;6.28;;;20.70;99.90;;;;;;6210507;23;20032;-80
2023/07/31 11:01:04;;;;;;;7.38;6.13;;;20.70;99.90;;;;;;6208545;23;20232;-80
2023/07/31 11:03:42;;;;;;;6.95;6.30;;;20.70;99.90;;;;;;6210246;23;20014;-80
2023/07/31 11:06:09;;;;;;;6.63;5.40;;;20.70;99.90;;;;;;6211245;23;20007;-81
2023/07/31 11:08:40;;;;;;;7.13;5.97;;;20.70;99.90;;;;;;6210280;23;20008;-80
2023/07/31 11:11:09;;;;;;;6.50;5.90;;;20.70;99.90;;;;;;6211457;23;20067;-81
2023/07/31 11:13:43;;;;;;;7.07;5.50;;;20.70;99.90;;;;;;6211632;23;20070;-81
2023/07/31 11:16:09;;;;;;;7.13;6.00;;;20.80;99.90;;;;;;6210451;23;20054;-81
2023/07/31 11:18:36;;;;;;;7.88;5.95;;;20.70;99.90;;;;;;6211458;23;19997;-81
2023/07/31 11:21:02;;;;;;;7.10;6.43;;;20.70;99.90;;;;;;6210115;23;20007;-81
2023/07/31 11:23:27;;;;;;;6.50;5.82;;;20.60;99.90;;;;;;6209765;23;20008;-81
2023/07/31 11:25:59;;;;;;;7.25;6.60;;;20.60;99.90;;;;;;6210414;23;20664;-81
2023/07/31 11:28:25;;;;;;;6.80;5.22;;;20.60;99.90;;;;;;6211438;23;20011;-80
2023/07/31 11:30:50;;;;;;;8.30;6.07;;;20.50;99.90;;;;;;6209596;23;20005;-81
2023/07/31 11:33:16;;;;;;;7.28;6.03;;;20.50;99.90;;;;;;6211300;23;20346;-81
2023/07/31 11:35:44;;;;;;;6.80;6.18;;;20.50;99.90;;;;;;6211569;23;20001;-80
2023/07/31 11:38:26;;;;;;;6.45;5.72;;;20.50;99.90;;;;;;6209645;23;20000;-81
2023/07/31 11:40:57;;;;;;;8.63;5.68;;;20.50;99.90;;;;;;6210856;23;20100;-80
2023/07/31 11:43:23;;;;;;;7.43;6.47;;;20.50;99.90;;;;;;6208656;23;20418;-80
2023/07/31 11:45:50;;;;;;;6.45;5.90;;;20.60;99.90;;;;;;6209261;23;20059;-80
2023/07/31 11:48:24;;;;;;;6.28;5.35;;;20.60;99.90;;;;;;6210024;23;20012;-87
2023/07/31 11:50:51;;;;;;;9.88;6.50;;;20.70;99.90;;;;;;6211484;23;20005;-82
2023/07/31 11:53:22;;;;;;;6.28;5.70;;;20.70;99.90;;;;;;6206645;23;20435;-83
2023/07/31 11:55:48;;;;;;;5.97;5.32;;;20.60;99.90;;;;;;6210507;23;19997;-80
2023/07/31 11:58:16;;;;;;;4.78;4.30;;;20.70;99.90;;;;;;6208546;23;20466;-79
2023/07/31 12:00:42;;;;;;;5.32;4.35;;;20.70;99.90;;;;;;6209477;23;20056;-80
2023/07/31 12:03:07;;;;;;;6.72;5.28;;;20.70;99.90;;;;;;6233448;23;20019;-80
2023/07/31 12:05:33;;;;;;;6.43;5.03;;;20.70;99.90;;;;;;6207742;23;20008;-81
2023/07/31 12:07:58;;;;;;;4.68;4.28;;;20.60;99.90;;;;;;6209779;23;20000;-80
2023/07/31 12:10:32;;;;;;;6.55;4.72;;;20.60;99.90;;;;;;6210209;23;19993;-82
2023/07/31 12:13:04;;;;;;;4.38;4.07;;;20.60;99.90;;;;;;6208968;23;20004;-83
2023/07/31 12:15:44;;;;;;;4.70;4.30;;;20.70;99.90;;;;;;6208588;23;20003;-81
2023/07/31 12:18:11;;;;;;;5.90;4.97;;;20.70;99.90;;;;;;6209736;23;20001;-81
2023/07/31 12:20:45;;;;;;;5.53;4.22;;;20.70;99.90;;;;;;6208866;23;20369;-81
2023/07/31 12:23:14;;;;;;;;;;;20.80;99.90;;;;;;6211051;23;20051;-81
2023/07/31 12:25:39;;;;;;;7.43;5.25;;;20.80;99.90;;;;;;6207707;23;20214;-81
2023/07/31 12:28:06;;;;;;;5.50;4.43;;;20.90;99.90;;;;;;6209329;23;20043;-82
2023/07/31 12:30:34;;;;;;;6.00;5.13;;;20.80;99.90;;;;;;6212681;23;20307;-82
2023/07/31 12:33:04;;;;;;;5.93;5.32;;;20.80;99.90;;;;;;6211208;23;20012;-81
2023/07/31 12:35:43;;;;;;;6.85;4.78;;;20.70;99.90;;;;;;6213164;23;20004;-82
2023/07/31 12:38:08;;;;;;;7.47;5.55;;;20.60;99.90;;;;;;6211781;23;19996;-81
2023/07/31 12:40:37;;;;;;;6.22;5.63;;;20.60;99.90;;;;;;6210976;23;20354;-82